sensor_id;sensor_type;location;lat;lon;timestamp;temperature;humidity
56771;DHT22;42641;59.794;17.616;2023-02-23T00:01:57;-0.30;99.90
56771;DHT22;42641;59.794;17.616;2023-02-23T00:04:26;-0.20;99.90
56771;DHT22;42641;59.794;17.616;2023-02-23T00:06:52;-0.20;99.90
56771;DHT22;42641;59.794;17.616;2023-02-23T00:09:19;-0.20;99.90
56771;DHT22;42641;59.794;17.616;2023-02-23T00:11:54;-0.20;99.90
56771;DHT22;42641;59.794;17.616;2023-02-23T00:14:24;-0.10;99.90
56771;DHT22;42641;59.794;17.616;2023-02-23T00:16:56;-0.10;99.90
56771;DHT22;42641;59.794;17.616;2023-02-23T00:19:23;-0.10;99.90
56771;DHT22;42641;59.794;17.616;2023-02-23T00:21:50;-0.10;99.90
56771;DHT22;42641;59.794;17.616;2023-02-23T00:24:17;-0.10;99.90
56771;DHT22;42641;59.794;17.616;2023-02-23T00:26:47;-0.10;99.90
56771;DHT22;42641;59.794;17.616;2023-02-23T00:29:18;-0.10;99.90
56771;DHT22;42641;59.794;17.616;2023-02-23T00:31:48;-0.10;99.90
56771;DHT22;42641;59.794;17.616;2023-02-23T00:34:17;-0.10;99.90
56771;DHT22;42641;59.794;17.616;2023-02-23T00:36:50;-0.10;99.90
56771;DHT22;42641;59.794;17.616;2023-02-23T00:39:16;-0.10;99.90
56771;DHT22;42641;59.794;17.616;2023-02-23T00:41:51;-0.10;99.90
56771;DHT22;42641;59.794;17.616;2023-02-23T00:44:19;-0.10;99.90
56771;DHT22;42641;59.794;17.616;2023-02-23T00:46:46;-0.10;99.90
56771;DHT22;42641;59.794;17.616;2023-02-23T00:49:18;-0.10;99.90
56771;DHT22;42641;59.794;17.616;2023-02-23T00:51:44;-0.10;99.90
56771;DHT22;42641;59.794;17.616;2023-02-23T00:54:13;0.00;99.90
56771;DHT22;42641;59.794;17.616;2023-02-23T00:56:39;-0.10;99.90
56771;DHT22;42641;59.794;17.616;2023-02-23T00:59:06;0.00;99.90
56771;DHT22;42641;59.794;17.616;2023-02-23T01:01:33;0.00;99.90
56771;DHT22;42641;59.794;17.616;2023-02-23T01:04:00;0.10;99.90
56771;DHT22;42641;59.794;17.616;2023-02-23T01:06:27;0.10;99.90
56771;DHT22;42641;59.794;17.616;2023-02-23T01:08:53;0.20;99.90
56771;DHT22;42641;59.794;17.616;2023-02-23T01:11:24;0.20;99.90
56771;DHT22;42641;59.794;17.616;2023-02-23T01:13:57;0.30;99.90
56771;DHT22;42641;59.794;17.616;2023-02-23T01:16:27;0.30;99.90
56771;DHT22;42641;59.794;17.616;2023-02-23T01:18:56;0.30;99.90
56771;DHT22;42641;59.794;17.616;2023-02-23T01:21:33;0.40;99.90
56771;DHT22;42641;59.794;17.616;2023-02-23T01:24:00;0.40;99.90
56771;DHT22;42641;59.794;17.616;2023-02-23T01:26:32;0.40;99.90
56771;DHT22;42641;59.794;17.616;2023-02-23T01:29:04;0.40;99.90
56771;DHT22;42641;59.794;17.616;2023-02-23T01:31:34;0.40;99.90
56771;DHT22;42641;59.794;17.616;2023-02-23T01:34:02;0.40;99.90
56771;DHT22;42641;59.794;17.616;2023-02-23T01:36:34;0.40;99.90
56771;DHT22;42641;59.794;17.616;2023-02-23T01:39:01;0.40;99.90
56771;DHT22;42641;59.794;17.616;2023-02-23T01:41:33;0.40;99.90
56771;DHT22;42641;59.794;17.616;2023-02-23T01:45:07;0.40;99.90
56771;DHT22;42641;59.794;17.616;2023-02-23T01:46:55;0.40;99.90
56771;DHT22;42641;59.794;17.616;2023-02-23T01:49:25;0.40;99.90
56771;DHT22;42641;59.794;17.616;2023-02-23T01:52:05;0.40;99.90
56771;DHT22;42641;59.794;17.616;2023-02-23T01:54:45;0.40;99.90
56771;DHT22;42641;59.794;17.616;2023-02-23T01:57:16;0.40;99.90
56771;DHT22;42641;59.794;17.616;2023-02-23T01:59:45;0.40;99.90
56771;DHT22;42641;59.794;17.616;2023-02-23T02:02:12;0.30;99.90
56771;DHT22;42641;59.794;17.616;2023-02-23T02:04:41;0.30;99.90
56771;DHT22;42641;59.794;17.616;2023-02-23T02:07:21;0.30;99.90
56771;DHT22;42641;59.794;17.616;2023-02-23T02:09:51;0.30;99.90
56771;DHT22;42641;59.794;17.616;2023-02-23T02:12:50;0.30;99.90
56771;DHT22;42641;59.794;17.616;2023-02-23T02:15:18;0.30;99.90
56771;DHT22;42641;59.794;17.616;2023-02-23T02:17:49;0.30;99.90
56771;DHT22;42641;59.794;17.616;2023-02-23T02:20:36;0.30;99.90
56771;DHT22;42641;59.794;17.616;2023-02-23T02:26:26;0.30;99.90
56771;DHT22;42641;59.794;17.616;2023-02-23T02:29:25;0.30;99.90
56771;DHT22;42641;59.794;17.616;2023-02-23T02:37:59;0.30;99.90
56771;DHT22;42641;59.794;17.616;2023-02-23T02:41:27;0.30;99.90
56771;DHT22;42641;59.794;17.616;2023-02-23T02:43:47;0.30;99.90
56771;DHT22;42641;59.794;17.616;2023-02-23T02:46:37;0.30;99.90
56771;DHT22;42641;59.794;17.616;2023-02-23T02:49:24;0.30;99.90
56771;DHT22;42641;59.794;17.616;2023-02-23T02:52:02;0.30;99.90
56771;DHT22;42641;59.794;17.616;2023-02-23T02:54:36;0.30;99.90
56771;DHT22;42641;59.794;17.616;2023-02-23T02:57:04;0.30;99.90
56771;DHT22;42641;59.794;17.616;2023-02-23T02:59:42;0.40;99.90
56771;DHT22;42641;59.794;17.616;2023-02-23T03:02:31;0.40;99.90
56771;DHT22;42641;59.794;17.616;2023-02-23T03:05:21;0.40;99.90
56771;DHT22;42641;59.794;17.616;2023-02-23T03:08:21;0.40;99.90
56771;DHT22;42641;59.794;17.616;2023-02-23T03:11:12;0.40;99.90
56771;DHT22;42641;59.794;17.616;2023-02-23T03:14:14;0.40;99.90
56771;DHT22;42641;59.794;17.616;2023-02-23T03:17:37;0.40;99.90
56771;DHT22;42641;59.794;17.616;2023-02-23T03:29:29;0.40;99.90
56771;DHT22;42641;59.794;17.616;2023-02-23T03:32:35;0.40;99.90
56771;DHT22;42641;59.794;17.616;2023-02-23T03:35:24;0.50;99.90
56771;DHT22;42641;59.794;17.616;2023-02-23T03:38:37;0.50;99.90
56771;DHT22;42641;59.794;17.616;2023-02-23T03:41:27;0.50;99.90
56771;DHT22;42641;59.794;17.616;2023-02-23T03:44:18;0.50;99.90
56771;DHT22;42641;59.794;17.616;2023-02-23T03:47:07;0.50;99.90
56771;DHT22;42641;59.794;17.616;2023-02-23T03:49:55;0.50;99.90
56771;DHT22;42641;59.794;17.616;2023-02-23T03:52:48;0.50;99.90
56771;DHT22;42641;59.794;17.616;2023-02-23T03:55:38;0.50;99.90
56771;DHT22;42641;59.794;17.616;2023-02-23T03:58:30;0.50;99.90
56771;DHT22;42641;59.794;17.616;2023-02-23T04:01:17;0.50;99.90
56771;DHT22;42641;59.794;17.616;2023-02-23T04:04:06;0.60;99.90
56771;DHT22;42641;59.794;17.616;2023-02-23T04:06:53;0.60;99.90
56771;DHT22;42641;59.794;17.616;2023-02-23T04:09:39;0.60;99.90
56771;DHT22;42641;59.794;17.616;2023-02-23T04:12:43;0.60;99.90
56771;DHT22;42641;59.794;17.616;2023-02-23T04:15:37;0.60;99.90
56771;DHT22;42641;59.794;17.616;2023-02-23T04:18:06;0.60;99.90
56771;DHT22;42641;59.794;17.616;2023-02-23T04:20:33;0.60;99.90
56771;DHT22;42641;59.794;17.616;2023-02-23T04:22:59;0.60;99.90
56771;DHT22;42641;59.794;17.616;2023-02-23T04:25:25;0.60;99.90
56771;DHT22;42641;59.794;17.616;2023-02-23T04:27:53;0.60;99.90
56771;DHT22;42641;59.794;17.616;2023-02-23T04:30:20;0.60;99.90
56771;DHT22;42641;59.794;17.616;2023-02-23T04:32:51;0.60;99.90
56771;DHT22;42641;59.794;17.616;2023-02-23T04:35:17;0.60;99.90
56771;DHT22;42641;59.794;17.616;2023-02-23T04:37:44;0.60;99.90
56771;DHT22;42641;59.794;17.616;2023-02-23T04:40:10;0.60;99.90
56771;DHT22;42641;59.794;17.616;2023-02-23T04:42:38;0.60;99.90
56771;DHT22;42641;59.794;17.616;2023-02-23T04:45:05;0.60;99.90
56771;DHT22;42641;59.794;17.616;2023-02-23T04:47:32;0.60;99.90
56771;DHT22;42641;59.794;17.616;2023-02-23T04:49:58;0.60;99.90
56771;DHT22;42641;59.794;17.616;2023-02-23T04:52:24;0.60;99.90
56771;DHT22;42641;59.794;17.616;2023-02-23T04:54:50;0.60;99.90
56771;DHT22;42641;59.794;17.616;2023-02-23T04:57:17;0.60;99.90
56771;DHT22;42641;59.794;17.616;2023-02-23T04:59:43;0.60;99.90
56771;DHT22;42641;59.794;17.616;2023-02-23T05:02:11;0.60;99.90
56771;DHT22;42641;59.794;17.616;2023-02-23T05:04:37;0.60;99.90
56771;DHT22;42641;59.794;17.616;2023-02-23T05:07:04;0.70;99.90
56771;DHT22;42641;59.794;17.616;2023-02-23T05:09:30;0.70;99.90
56771;DHT22;42641;59.794;17.616;2023-02-23T05:11:58;0.70;99.90
56771;DHT22;42641;59.794;17.616;2023-02-23T05:14:24;0.70;99.90
56771;DHT22;42641;59.794;17.616;2023-02-23T05:16:51;0.70;99.90
56771;DHT22;42641;59.794;17.616;2023-02-23T05:19:17;0.70;99.90
56771;DHT22;42641;59.794;17.616;2023-02-23T05:21:45;0.70;99.90
56771;DHT22;42641;59.794;17.616;2023-02-23T05:24:11;0.70;99.90
56771;DHT22;42641;59.794;17.616;2023-02-23T05:26:38;0.70;99.90
56771;DHT22;42641;59.794;17.616;2023-02-23T05:29:04;0.70;99.90
56771;DHT22;42641;59.794;17.616;2023-02-23T05:31:31;0.70;99.90
56771;DHT22;42641;59.794;17.616;2023-02-23T05:33:58;0.70;99.90
56771;DHT22;42641;59.794;17.616;2023-02-23T05:36:24;0.60;99.90
56771;DHT22;42641;59.794;17.616;2023-02-23T05:38:50;0.70;99.90
56771;DHT22;42641;59.794;17.616;2023-02-23T05:41:19;0.70;99.90
56771;DHT22;42641;59.794;17.616;2023-02-23T05:43:46;0.60;99.90
56771;DHT22;42641;59.794;17.616;2023-02-23T05:46:19;0.70;99.90
56771;DHT22;42641;59.794;17.616;2023-02-23T05:48:46;0.70;99.90
56771;DHT22;42641;59.794;17.616;2023-02-23T05:51:14;0.70;99.90
56771;DHT22;42641;59.794;17.616;2023-02-23T05:53:41;0.70;99.90
56771;DHT22;42641;59.794;17.616;2023-02-23T05:56:11;0.70;99.90
56771;DHT22;42641;59.794;17.616;2023-02-23T05:58:38;0.70;99.90
56771;DHT22;42641;59.794;17.616;2023-02-23T06:01:05;0.70;99.90
56771;DHT22;42641;59.794;17.616;2023-02-23T06:03:31;0.70;99.90
56771;DHT22;42641;59.794;17.616;2023-02-23T06:05:58;0.70;99.90
56771;DHT22;42641;59.794;17.616;2023-02-23T06:08:25;0.70;99.90
56771;DHT22;42641;59.794;17.616;2023-02-23T06:10:52;0.70;99.90
56771;DHT22;42641;59.794;17.616;2023-02-23T06:13:18;0.80;99.90
56771;DHT22;42641;59.794;17.616;2023-02-23T06:15:46;0.80;99.90
56771;DHT22;42641;59.794;17.616;2023-02-23T06:18:12;0.80;99.90
56771;DHT22;42641;59.794;17.616;2023-02-23T06:20:39;0.80;99.90
56771;DHT22;42641;59.794;17.616;2023-02-23T06:23:05;0.80;99.90
56771;DHT22;42641;59.794;17.616;2023-02-23T06:25:32;0.80;99.90
56771;DHT22;42641;59.794;17.616;2023-02-23T06:27:58;0.70;99.90
56771;DHT22;42641;59.794;17.616;2023-02-23T06:30:25;0.80;99.90
56771;DHT22;42641;59.794;17.616;2023-02-23T06:32:51;0.80;99.90
56771;DHT22;42641;59.794;17.616;2023-02-23T06:35:20;0.80;99.90
56771;DHT22;42641;59.794;17.616;2023-02-23T06:37:47;0.80;99.90
56771;DHT22;42641;59.794;17.616;2023-02-23T06:40:13;0.80;99.90
56771;DHT22;42641;59.794;17.616;2023-02-23T06:42:39;0.80;99.90
56771;DHT22;42641;59.794;17.616;2023-02-23T06:45:06;0.80;99.90
56771;DHT22;42641;59.794;17.616;2023-02-23T06:47:32;0.80;99.90
56771;DHT22;42641;59.794;17.616;2023-02-23T06:49:59;0.80;99.90
56771;DHT22;42641;59.794;17.616;2023-02-23T06:52:25;0.80;99.90
56771;DHT22;42641;59.794;17.616;2023-02-23T06:54:52;0.90;99.90
56771;DHT22;42641;59.794;17.616;2023-02-23T06:57:18;0.90;99.90
56771;DHT22;42641;59.794;17.616;2023-02-23T06:59:44;0.90;99.90
56771;DHT22;42641;59.794;17.616;2023-02-23T07:02:12;1.00;99.90
56771;DHT22;42641;59.794;17.616;2023-02-23T07:04:39;1.00;99.90
56771;DHT22;42641;59.794;17.616;2023-02-23T07:07:05;1.00;99.90
56771;DHT22;42641;59.794;17.616;2023-02-23T07:09:31;1.00;99.90
56771;DHT22;42641;59.794;17.616;2023-02-23T07:11:58;1.10;99.90
56771;DHT22;42641;59.794;17.616;2023-02-23T07:14:25;1.10;99.90
56771;DHT22;42641;59.794;17.616;2023-02-23T07:16:52;1.10;99.90
56771;DHT22;42641;59.794;17.616;2023-02-23T07:19:18;1.10;99.90
56771;DHT22;42641;59.794;17.616;2023-02-23T07:21:45;1.10;99.90
56771;DHT22;42641;59.794;17.616;2023-02-23T07:24:11;1.20;99.90
56771;DHT22;42641;59.794;17.616;2023-02-23T07:26:38;1.10;99.90
56771;DHT22;42641;59.794;17.616;2023-02-23T07:29:06;1.20;99.90
56771;DHT22;42641;59.794;17.616;2023-02-23T07:31:32;1.20;99.90
56771;DHT22;42641;59.794;17.616;2023-02-23T07:33:58;1.20;99.90
56771;DHT22;42641;59.794;17.616;2023-02-23T07:36:24;1.20;99.90
56771;DHT22;42641;59.794;17.616;2023-02-23T07:38:51;1.30;99.90
56771;DHT22;42641;59.794;17.616;2023-02-23T07:41:17;1.20;99.90
56771;DHT22;42641;59.794;17.616;2023-02-23T07:43:44;1.30;99.90
56771;DHT22;42641;59.794;17.616;2023-02-23T07:46:10;1.30;99.90
56771;DHT22;42641;59.794;17.616;2023-02-23T07:48:37;1.30;99.90
56771;DHT22;42641;59.794;17.616;2023-02-23T07:51:08;1.30;99.90
56771;DHT22;42641;59.794;17.616;2023-02-23T07:53:37;1.30;99.90
56771;DHT22;42641;59.794;17.616;2023-02-23T07:56:04;1.30;99.90
56771;DHT22;42641;59.794;17.616;2023-02-23T07:58:30;1.30;99.90
56771;DHT22;42641;59.794;17.616;2023-02-23T08:00:57;1.30;99.90
56771;DHT22;42641;59.794;17.616;2023-02-23T08:03:23;1.40;99.90
56771;DHT22;42641;59.794;17.616;2023-02-23T08:05:51;1.50;99.90
56771;DHT22;42641;59.794;17.616;2023-02-23T08:08:17;1.50;99.90
56771;DHT22;42641;59.794;17.616;2023-02-23T08:10:44;1.50;99.90
56771;DHT22;42641;59.794;17.616;2023-02-23T08:13:10;1.50;99.90
56771;DHT22;42641;59.794;17.616;2023-02-23T08:15:36;1.50;99.90
56771;DHT22;42641;59.794;17.616;2023-02-23T08:18:03;1.50;99.90
56771;DHT22;42641;59.794;17.616;2023-02-23T08:20:30;1.60;99.90
56771;DHT22;42641;59.794;17.616;2023-02-23T08:22:57;1.60;99.90
56771;DHT22;42641;59.794;17.616;2023-02-23T08:25:24;1.60;99.90
56771;DHT22;42641;59.794;17.616;2023-02-23T08:27:52;1.60;99.90
56771;DHT22;42641;59.794;17.616;2023-02-23T08:30:23;1.70;99.90
56771;DHT22;42641;59.794;17.616;2023-02-23T08:32:49;1.70;99.90
56771;DHT22;42641;59.794;17.616;2023-02-23T08:35:16;1.70;99.90
56771;DHT22;42641;59.794;17.616;2023-02-23T08:37:45;1.70;99.90
56771;DHT22;42641;59.794;17.616;2023-02-23T08:40:12;1.80;99.90
56771;DHT22;42641;59.794;17.616;2023-02-23T08:42:42;1.80;99.90
56771;DHT22;42641;59.794;17.616;2023-02-23T08:45:09;1.80;99.90
56771;DHT22;42641;59.794;17.616;2023-02-23T08:47:36;1.80;99.90
56771;DHT22;42641;59.794;17.616;2023-02-23T08:50:03;1.90;99.90
56771;DHT22;42641;59.794;17.616;2023-02-23T08:52:31;1.90;99.90
56771;DHT22;42641;59.794;17.616;2023-02-23T08:54:57;1.90;99.90
56771;DHT22;42641;59.794;17.616;2023-02-23T08:57:24;2.00;99.90
56771;DHT22;42641;59.794;17.616;2023-02-23T08:59:51;2.00;99.90
56771;DHT22;42641;59.794;17.616;2023-02-23T09:02:17;2.00;99.90
56771;DHT22;42641;59.794;17.616;2023-02-23T09:04:44;2.00;99.90
56771;DHT22;42641;59.794;17.616;2023-02-23T09:07:15;2.00;99.90
56771;DHT22;42641;59.794;17.616;2023-02-23T09:09:42;2.10;99.90
56771;DHT22;42641;59.794;17.616;2023-02-23T09:12:08;2.10;99.90
56771;DHT22;42641;59.794;17.616;2023-02-23T09:14:35;2.20;99.90
56771;DHT22;42641;59.794;17.616;2023-02-23T09:17:02;2.20;99.90
56771;DHT22;42641;59.794;17.616;2023-02-23T09:19:28;2.30;99.90
56771;DHT22;42641;59.794;17.616;2023-02-23T09:21:55;2.30;99.90
56771;DHT22;42641;59.794;17.616;2023-02-23T09:24:21;2.40;99.90
56771;DHT22;42641;59.794;17.616;2023-02-23T09:26:48;2.40;99.90
56771;DHT22;42641;59.794;17.616;2023-02-23T09:29:14;2.50;99.90
56771;DHT22;42641;59.794;17.616;2023-02-23T09:31:41;2.50;99.90
56771;DHT22;42641;59.794;17.616;2023-02-23T09:34:08;2.60;99.90
56771;DHT22;42641;59.794;17.616;2023-02-23T09:36:35;2.60;99.90
56771;DHT22;42641;59.794;17.616;2023-02-23T09:39:01;2.60;99.90
56771;DHT22;42641;59.794;17.616;2023-02-23T09:49:44;2.70;99.90
56771;DHT22;42641;59.794;17.616;2023-02-23T09:52:16;2.80;99.90
56771;DHT22;42641;59.794;17.616;2023-02-23T09:54:43;2.80;99.90
56771;DHT22;42641;59.794;17.616;2023-02-23T09:57:14;2.90;99.90
56771;DHT22;42641;59.794;17.616;2023-02-23T09:59:42;2.90;99.90
56771;DHT22;42641;59.794;17.616;2023-02-23T10:02:23;3.00;99.90
56771;DHT22;42641;59.794;17.616;2023-02-23T10:05:01;3.00;99.90
56771;DHT22;42641;59.794;17.616;2023-02-23T10:07:35;3.00;99.90
56771;DHT22;42641;59.794;17.616;2023-02-23T10:10:27;3.00;99.90
56771;DHT22;42641;59.794;17.616;2023-02-23T10:13:01;2.90;99.90
56771;DHT22;42641;59.794;17.616;2023-02-23T10:15:51;2.80;99.90
56771;DHT22;42641;59.794;17.616;2023-02-23T10:21:05;2.80;99.90
56771;DHT22;42641;59.794;17.616;2023-02-23T10:23:48;2.80;99.90
56771;DHT22;42641;59.794;17.616;2023-02-23T10:26:19;2.80;99.90
56771;DHT22;42641;59.794;17.616;2023-02-23T10:28:47;2.80;99.90
56771;DHT22;42641;59.794;17.616;2023-02-23T10:31:41;2.90;99.90
56771;DHT22;42641;59.794;17.616;2023-02-23T10:34:13;2.90;99.90
56771;DHT22;42641;59.794;17.616;2023-02-23T10:36:52;3.10;99.90
56771;DHT22;42641;59.794;17.616;2023-02-23T10:39:21;3.10;99.90
56771;DHT22;42641;59.794;17.616;2023-02-23T10:41:47;3.10;99.90
56771;DHT22;42641;59.794;17.616;2023-02-23T10:44:20;3.20;99.90
56771;DHT22;42641;59.794;17.616;2023-02-23T10:46:57;3.20;99.90
56771;DHT22;42641;59.794;17.616;2023-02-23T10:49:32;3.20;99.90
56771;DHT22;42641;59.794;17.616;2023-02-23T10:52:00;3.40;99.90
56771;DHT22;42641;59.794;17.616;2023-02-23T10:54:45;3.40;99.90
56771;DHT22;42641;59.794;17.616;2023-02-23T11:02:44;3.40;99.90
56771;DHT22;42641;59.794;17.616;2023-02-23T11:08:26;3.40;99.90
56771;DHT22;42641;59.794;17.616;2023-02-23T11:13:35;3.40;99.90
56771;DHT22;42641;59.794;17.616;2023-02-23T11:16:11;3.40;99.90
56771;DHT22;42641;59.794;17.616;2023-02-23T11:21:37;3.30;99.90
56771;DHT22;42641;59.794;17.616;2023-02-23T11:24:28;3.30;99.90
56771;DHT22;42641;59.794;17.616;2023-02-23T11:27:03;3.30;99.90
56771;DHT22;42641;59.794;17.616;2023-02-23T11:29:39;3.30;99.90
56771;DHT22;42641;59.794;17.616;2023-02-23T11:32:12;3.40;99.90
56771;DHT22;42641;59.794;17.616;2023-02-23T11:34:39;3.30;99.90
56771;DHT22;42641;59.794;17.616;2023-02-23T11:39:54;3.40;99.90
56771;DHT22;42641;59.794;17.616;2023-02-23T11:42:25;3.50;99.90
56771;DHT22;42641;59.794;17.616;2023-02-23T11:45:05;3.50;99.90
56771;DHT22;42641;59.794;17.616;2023-02-23T11:47:37;3.50;99.90
56771;DHT22;42641;59.794;17.616;2023-02-23T11:50:05;3.50;99.90
56771;DHT22;42641;59.794;17.616;2023-02-23T11:52:32;3.50;99.90
56771;DHT22;42641;59.794;17.616;2023-02-23T11:55:03;3.60;99.90
56771;DHT22;42641;59.794;17.616;2023-02-23T11:57:33;3.70;99.90
56771;DHT22;42641;59.794;17.616;2023-02-23T12:00:12;3.60;99.90
56771;DHT22;42641;59.794;17.616;2023-02-23T12:03:06;3.50;99.90
56771;DHT22;42641;59.794;17.616;2023-02-23T12:05:32;3.50;99.90
56771;DHT22;42641;59.794;17.616;2023-02-23T12:08:10;3.50;99.90
56771;DHT22;42641;59.794;17.616;2023-02-23T12:10:41;3.50;99.90
56771;DHT22;42641;59.794;17.616;2023-02-23T12:18:51;3.40;99.90
56771;DHT22;42641;59.794;17.616;2023-02-23T12:26:59;3.20;99.90
56771;DHT22;42641;59.794;17.616;2023-02-23T12:35:00;3.30;99.90
56771;DHT22;42641;59.794;17.616;2023-02-23T12:40:34;3.60;99.90
56771;DHT22;42641;59.794;17.616;2023-02-23T12:46:16;3.50;99.90
56771;DHT22;42641;59.794;17.616;2023-02-23T12:54:34;3.70;99.90
56771;DHT22;42641;59.794;17.616;2023-02-23T13:00:06;3.50;99.90
56771;DHT22;42641;59.794;17.616;2023-02-23T13:05:50;3.40;99.90
56771;DHT22;42641;59.794;17.616;2023-02-23T13:08:37;3.40;99.90
56771;DHT22;42641;59.794;17.616;2023-02-23T13:16:50;3.60;99.90
56771;DHT22;42641;59.794;17.616;2023-02-23T13:24:37;3.50;99.90
56771;DHT22;42641;59.794;17.616;2023-02-23T13:27:17;3.50;99.90
56771;DHT22;42641;59.794;17.616;2023-02-23T13:29:47;3.40;99.90
56771;DHT22;42641;59.794;17.616;2023-02-23T13:32:20;3.30;99.90
56771;DHT22;42641;59.794;17.616;2023-02-23T13:34:56;3.40;99.90
56771;DHT22;42641;59.794;17.616;2023-02-23T13:37:42;3.30;99.90
56771;DHT22;42641;59.794;17.616;2023-02-23T13:43:26;3.30;99.90
56771;DHT22;42641;59.794;17.616;2023-02-23T13:48:40;3.20;99.90
56771;DHT22;42641;59.794;17.616;2023-02-23T13:57:10;3.30;99.90
56771;DHT22;42641;59.794;17.616;2023-02-23T13:59:37;3.30;99.90
56771;DHT22;42641;59.794;17.616;2023-02-23T14:04:56;3.30;99.90
56771;DHT22;42641;59.794;17.616;2023-02-23T14:07:29;3.40;99.90
56771;DHT22;42641;59.794;17.616;2023-02-23T14:10:00;3.40;99.90
56771;DHT22;42641;59.794;17.616;2023-02-23T14:12:34;3.50;99.90
56771;DHT22;42641;59.794;17.616;2023-02-23T14:25:52;3.60;99.90
56771;DHT22;42641;59.794;17.616;2023-02-23T14:28:36;3.50;99.90
56771;DHT22;42641;59.794;17.616;2023-02-23T14:44:40;3.50;99.90
56771;DHT22;42641;59.794;17.616;2023-02-23T14:49:36;3.50;99.90
56771;DHT22;42641;59.794;17.616;2023-02-23T14:52:27;3.50;99.90
56771;DHT22;42641;59.794;17.616;2023-02-23T14:57:40;3.50;99.90
56771;DHT22;42641;59.794;17.616;2023-02-23T15:05:32;3.40;99.90
56771;DHT22;42641;59.794;17.616;2023-02-23T15:08:02;3.40;99.90
56771;DHT22;42641;59.794;17.616;2023-02-23T15:10:32;3.40;99.90
56771;DHT22;42641;59.794;17.616;2023-02-23T15:13:00;3.30;99.90
56771;DHT22;42641;59.794;17.616;2023-02-23T15:15:32;3.30;99.90
56771;DHT22;42641;59.794;17.616;2023-02-23T15:18:02;3.20;99.90
56771;DHT22;42641;59.794;17.616;2023-02-23T15:20:32;3.20;99.90
56771;DHT22;42641;59.794;17.616;2023-02-23T15:23:01;3.20;99.90
56771;DHT22;42641;59.794;17.616;2023-02-23T15:25:36;3.20;99.90
56771;DHT22;42641;59.794;17.616;2023-02-23T15:28:23;3.10;99.90
56771;DHT22;42641;59.794;17.616;2023-02-23T15:30:53;3.00;99.90
56771;DHT22;42641;59.794;17.616;2023-02-23T15:33:21;3.00;99.90
56771;DHT22;42641;59.794;17.616;2023-02-23T15:36:09;2.90;99.90
56771;DHT22;42641;59.794;17.616;2023-02-23T15:38:46;2.90;99.90
56771;DHT22;42641;59.794;17.616;2023-02-23T15:41:24;2.90;99.90
56771;DHT22;42641;59.794;17.616;2023-02-23T15:43:51;2.80;99.90
56771;DHT22;42641;59.794;17.616;2023-02-23T15:46:23;2.80;99.90
56771;DHT22;42641;59.794;17.616;2023-02-23T15:48:52;2.90;99.90
56771;DHT22;42641;59.794;17.616;2023-02-23T15:51:44;2.90;99.90
56771;DHT22;42641;59.794;17.616;2023-02-23T15:56:56;2.90;99.90
56771;DHT22;42641;59.794;17.616;2023-02-23T15:59:29;2.80;99.90
56771;DHT22;42641;59.794;17.616;2023-02-23T16:02:00;2.80;99.90
56771;DHT22;42641;59.794;17.616;2023-02-23T16:04:38;2.80;99.90
56771;DHT22;42641;59.794;17.616;2023-02-23T16:07:23;2.80;99.90
56771;DHT22;42641;59.794;17.616;2023-02-23T16:09:52;2.80;99.90
56771;DHT22;42641;59.794;17.616;2023-02-23T16:12:27;2.70;99.90
56771;DHT22;42641;59.794;17.616;2023-02-23T16:14:59;2.70;99.90
56771;DHT22;42641;59.794;17.616;2023-02-23T16:17:47;2.60;99.90
56771;DHT22;42641;59.794;17.616;2023-02-23T16:20:30;2.60;99.90
56771;DHT22;42641;59.794;17.616;2023-02-23T16:23:00;2.50;99.90
56771;DHT22;42641;59.794;17.616;2023-02-23T16:25:29;2.50;99.90
56771;DHT22;42641;59.794;17.616;2023-02-23T16:28:22;2.40;99.90
56771;DHT22;42641;59.794;17.616;2023-02-23T16:31:04;2.40;99.90
56771;DHT22;42641;59.794;17.616;2023-02-23T16:38:39;2.30;99.90
56771;DHT22;42641;59.794;17.616;2023-02-23T16:41:19;2.30;99.90
56771;DHT22;42641;59.794;17.616;2023-02-23T16:43:48;2.30;99.90
56771;DHT22;42641;59.794;17.616;2023-02-23T16:46:16;2.30;99.90
56771;DHT22;42641;59.794;17.616;2023-02-23T16:48:42;2.20;99.90
56771;DHT22;42641;59.794;17.616;2023-02-23T16:51:20;2.20;99.90
56771;DHT22;42641;59.794;17.616;2023-02-23T16:53:48;2.20;99.90
56771;DHT22;42641;59.794;17.616;2023-02-23T16:56:18;2.10;99.90
56771;DHT22;42641;59.794;17.616;2023-02-23T16:58:48;2.10;99.90
56771;DHT22;42641;59.794;17.616;2023-02-23T17:01:17;2.10;99.90
56771;DHT22;42641;59.794;17.616;2023-02-23T17:03:44;2.10;99.90
56771;DHT22;42641;59.794;17.616;2023-02-23T17:06:11;2.00;99.90
56771;DHT22;42641;59.794;17.616;2023-02-23T17:08:38;1.90;99.90
56771;DHT22;42641;59.794;17.616;2023-02-23T17:11:05;1.90;99.90
56771;DHT22;42641;59.794;17.616;2023-02-23T17:13:32;2.00;99.90
56771;DHT22;42641;59.794;17.616;2023-02-23T17:16:01;2.00;99.90
56771;DHT22;42641;59.794;17.616;2023-02-23T17:18:30;2.00;99.90
56771;DHT22;42641;59.794;17.616;2023-02-23T17:21:00;2.00;99.90
56771;DHT22;42641;59.794;17.616;2023-02-23T17:23:29;2.00;99.90
56771;DHT22;42641;59.794;17.616;2023-02-23T17:26:08;2.00;99.90
56771;DHT22;42641;59.794;17.616;2023-02-23T17:28:34;2.00;99.90
56771;DHT22;42641;59.794;17.616;2023-02-23T17:31:02;2.00;99.90
56771;DHT22;42641;59.794;17.616;2023-02-23T17:33:29;2.00;99.90
56771;DHT22;42641;59.794;17.616;2023-02-23T17:36:07;2.00;99.90
56771;DHT22;42641;59.794;17.616;2023-02-23T17:38:33;2.00;99.90
56771;DHT22;42641;59.794;17.616;2023-02-23T17:41:08;2.00;99.90
56771;DHT22;42641;59.794;17.616;2023-02-23T17:43:35;2.00;99.90
56771;DHT22;42641;59.794;17.616;2023-02-23T17:46:03;2.00;99.90
56771;DHT22;42641;59.794;17.616;2023-02-23T17:48:29;2.00;99.90
56771;DHT22;42641;59.794;17.616;2023-02-23T17:51:01;1.80;99.90
56771;DHT22;42641;59.794;17.616;2023-02-23T17:53:29;1.70;99.90
56771;DHT22;42641;59.794;17.616;2023-02-23T17:55:56;1.70;99.90
56771;DHT22;42641;59.794;17.616;2023-02-23T17:58:23;1.70;99.90
56771;DHT22;42641;59.794;17.616;2023-02-23T18:01:00;1.70;99.90
56771;DHT22;42641;59.794;17.616;2023-02-23T18:03:29;1.70;99.90
56771;DHT22;42641;59.794;17.616;2023-02-23T18:06:04;1.70;99.90
56771;DHT22;42641;59.794;17.616;2023-02-23T18:08:31;1.60;99.90
56771;DHT22;42641;59.794;17.616;2023-02-23T18:10:58;1.60;99.90
56771;DHT22;42641;59.794;17.616;2023-02-23T18:13:26;1.50;99.90
56771;DHT22;42641;59.794;17.616;2023-02-23T18:15:57;1.50;99.90
56771;DHT22;42641;59.794;17.616;2023-02-23T18:18:24;1.40;99.90
56771;DHT22;42641;59.794;17.616;2023-02-23T18:20:56;1.40;99.90
56771;DHT22;42641;59.794;17.616;2023-02-23T18:23:26;1.40;99.90
56771;DHT22;42641;59.794;17.616;2023-02-23T18:25:54;1.30;99.90
56771;DHT22;42641;59.794;17.616;2023-02-23T18:28:20;1.30;99.90
56771;DHT22;42641;59.794;17.616;2023-02-23T18:30:46;1.30;99.90